sensor_id;sensor_type;location;lat;lon;timestamp;P1;durP1;ratioP1;P2;durP2;ratioP2
50012;SDS011;35901;48.694;9.476;2023-08-31T00:00:41;4.07;;;3.67;;
50012;SDS011;35901;48.694;9.476;2023-08-31T00:03:07;4.80;;;4.33;;
50012;SDS011;35901;48.694;9.476;2023-08-31T00:05:38;5.07;;;4.03;;
50012;SDS011;35901;48.694;9.476;2023-08-31T00:08:05;4.13;;;3.77;;
50012;SDS011;35901;48.694;9.476;2023-08-31T00:10:32;5.60;;;3.80;;
50012;SDS011;35901;48.694;9.476;2023-08-31T00:12:58;4.33;;;3.97;;
50012;SDS011;35901;48.694;9.476;2023-08-31T00:15:23;4.83;;;4.33;;
50012;SDS011;35901;48.694;9.476;2023-08-31T00:17:49;5.17;;;4.73;;
50012;SDS011;35901;48.694;9.476;2023-08-31T00:20:15;4.90;;;4.50;;
50012;SDS011;35901;48.694;9.476;2023-08-31T00:22:41;5.80;;;4.27;;
50012;SDS011;35901;48.694;9.476;2023-08-31T00:25:07;5.07;;;4.57;;
50012;SDS011;35901;48.694;9.476;2023-08-31T00:27:34;4.70;;;4.30;;
50012;SDS011;35901;48.694;9.476;2023-08-31T00:30:03;4.77;;;4.37;;
50012;SDS011;35901;48.694;9.476;2023-08-31T00:32:31;4.83;;;4.33;;
50012;SDS011;35901;48.694;9.476;2023-08-31T00:34:58;6.73;;;3.97;;
50012;SDS011;35901;48.694;9.476;2023-08-31T00:37:24;4.20;;;3.80;;
50012;SDS011;35901;48.694;9.476;2023-08-31T00:39:50;4.80;;;3.60;;
50012;SDS011;35901;48.694;9.476;2023-08-31T00:42:17;3.70;;;3.40;;
50012;SDS011;35901;48.694;9.476;2023-08-31T00:44:43;4.00;;;3.63;;
50012;SDS011;35901;48.694;9.476;2023-08-31T00:47:12;3.97;;;3.67;;
50012;SDS011;35901;48.694;9.476;2023-08-31T00:49:38;4.27;;;3.60;;
50012;SDS011;35901;48.694;9.476;2023-08-31T00:52:05;3.30;;;3.10;;
50012;SDS011;35901;48.694;9.476;2023-08-31T00:54:32;3.90;;;3.50;;
50012;SDS011;35901;48.694;9.476;2023-08-31T00:56:59;3.73;;;3.43;;
50012;SDS011;35901;48.694;9.476;2023-08-31T00:59:25;4.00;;;3.57;;
50012;SDS011;35901;48.694;9.476;2023-08-31T01:10:21;5.17;;;3.40;;
50012;SDS011;35901;48.694;9.476;2023-08-31T01:13:08;4.10;;;3.70;;
50012;SDS011;35901;48.694;9.476;2023-08-31T01:15:39;4.33;;;3.90;;
50012;SDS011;35901;48.694;9.476;2023-08-31T01:18:09;4.93;;;4.00;;
50012;SDS011;35901;48.694;9.476;2023-08-31T01:20:38;5.27;;;4.00;;
50012;SDS011;35901;48.694;9.476;2023-08-31T01:23:20;4.30;;;3.90;;
50012;SDS011;35901;48.694;9.476;2023-08-31T01:25:53;4.43;;;4.03;;
50012;SDS011;35901;48.694;9.476;2023-08-31T01:28:21;5.43;;;4.00;;
50012;SDS011;35901;48.694;9.476;2023-08-31T01:30:47;4.73;;;4.03;;
50012;SDS011;35901;48.694;9.476;2023-08-31T01:33:13;5.50;;;4.10;;
50012;SDS011;35901;48.694;9.476;2023-08-31T01:35:43;4.60;;;4.20;;
50012;SDS011;35901;48.694;9.476;2023-08-31T01:38:13;5.00;;;4.40;;
50012;SDS011;35901;48.694;9.476;2023-08-31T01:41:05;4.53;;;4.13;;
50012;SDS011;35901;48.694;9.476;2023-08-31T01:43:35;4.53;;;4.13;;
50012;SDS011;35901;48.694;9.476;2023-08-31T01:46:02;5.00;;;4.60;;
50012;SDS011;35901;48.694;9.476;2023-08-31T01:48:28;4.83;;;4.43;;
50012;SDS011;35901;48.694;9.476;2023-08-31T01:50:53;5.37;;;4.87;;
50012;SDS011;35901;48.694;9.476;2023-08-31T01:53:19;4.93;;;4.30;;
50012;SDS011;35901;48.694;9.476;2023-08-31T01:55:44;5.57;;;4.97;;
50012;SDS011;35901;48.694;9.476;2023-08-31T01:58:10;6.67;;;5.07;;
50012;SDS011;35901;48.694;9.476;2023-08-31T02:00:36;5.07;;;4.57;;
50012;SDS011;35901;48.694;9.476;2023-08-31T02:03:03;5.50;;;5.00;;
50012;SDS011;35901;48.694;9.476;2023-08-31T02:05:29;7.63;;;4.50;;
50012;SDS011;35901;48.694;9.476;2023-08-31T02:07:55;5.20;;;4.70;;
50012;SDS011;35901;48.694;9.476;2023-08-31T02:10:25;5.10;;;4.67;;
50012;SDS011;35901;48.694;9.476;2023-08-31T02:12:52;5.50;;;4.83;;
50012;SDS011;35901;48.694;9.476;2023-08-31T02:15:17;7.00;;;5.10;;
50012;SDS011;35901;48.694;9.476;2023-08-31T02:17:43;5.10;;;4.70;;
50012;SDS011;35901;48.694;9.476;2023-08-31T02:20:09;5.10;;;4.70;;
50012;SDS011;35901;48.694;9.476;2023-08-31T02:22:35;5.30;;;4.80;;
50012;SDS011;35901;48.694;9.476;2023-08-31T02:25:01;5.10;;;4.60;;
50012;SDS011;35901;48.694;9.476;2023-08-31T02:27:27;4.70;;;4.30;;
50012;SDS011;35901;48.694;9.476;2023-08-31T02:29:53;5.50;;;4.77;;
50012;SDS011;35901;48.694;9.476;2023-08-31T02:32:19;5.67;;;5.17;;
50012;SDS011;35901;48.694;9.476;2023-08-31T02:34:45;6.10;;;5.50;;
50012;SDS011;35901;48.694;9.476;2023-08-31T02:37:11;5.37;;;4.63;;
50012;SDS011;35901;48.694;9.476;2023-08-31T02:39:36;5.17;;;4.73;;
50012;SDS011;35901;48.694;9.476;2023-08-31T02:42:02;5.70;;;5.20;;
50012;SDS011;35901;48.694;9.476;2023-08-31T02:44:30;5.90;;;5.20;;
50012;SDS011;35901;48.694;9.476;2023-08-31T02:46:56;5.50;;;5.00;;
50012;SDS011;35901;48.694;9.476;2023-08-31T02:49:22;5.60;;;5.10;;
50012;SDS011;35901;48.694;9.476;2023-08-31T02:51:47;5.30;;;4.70;;
50012;SDS011;35901;48.694;9.476;2023-08-31T02:54:14;5.33;;;4.87;;
50012;SDS011;35901;48.694;9.476;2023-08-31T02:56:40;5.40;;;4.90;;
50012;SDS011;35901;48.694;9.476;2023-08-31T02:59:06;5.53;;;5.00;;
50012;SDS011;35901;48.694;9.476;2023-08-31T03:01:33;5.53;;;5.00;;
50012;SDS011;35901;48.694;9.476;2023-08-31T03:03:58;7.23;;;5.20;;
50012;SDS011;35901;48.694;9.476;2023-08-31T03:06:25;5.80;;;5.20;;
50012;SDS011;35901;48.694;9.476;2023-08-31T03:08:51;6.10;;;5.60;;
50012;SDS011;35901;48.694;9.476;2023-08-31T03:11:17;6.53;;;5.20;;
50012;SDS011;35901;48.694;9.476;2023-08-31T03:13:43;5.27;;;4.87;;
50012;SDS011;35901;48.694;9.476;2023-08-31T03:16:10;7.30;;;5.13;;
50012;SDS011;35901;48.694;9.476;2023-08-31T03:18:36;5.60;;;5.10;;
50012;SDS011;35901;48.694;9.476;2023-08-31T03:21:01;5.83;;;5.33;;
50012;SDS011;35901;48.694;9.476;2023-08-31T03:23:28;6.83;;;5.83;;
50012;SDS011;35901;48.694;9.476;2023-08-31T03:25:56;5.63;;;5.23;;
50012;SDS011;35901;48.694;9.476;2023-08-31T03:28:25;5.60;;;5.07;;
50012;SDS011;35901;48.694;9.476;2023-08-31T03:30:55;6.07;;;5.47;;
50012;SDS011;35901;48.694;9.476;2023-08-31T03:33:21;5.37;;;4.87;;
50012;SDS011;35901;48.694;9.476;2023-08-31T03:35:47;6.00;;;5.40;;
50012;SDS011;35901;48.694;9.476;2023-08-31T03:38:13;6.67;;;6.07;;
50012;SDS011;35901;48.694;9.476;2023-08-31T03:40:39;6.17;;;5.57;;
50012;SDS011;35901;48.694;9.476;2023-08-31T03:43:04;5.87;;;5.37;;
50012;SDS011;35901;48.694;9.476;2023-08-31T03:45:31;6.77;;;5.93;;
50012;SDS011;35901;48.694;9.476;2023-08-31T03:47:56;6.37;;;5.73;;
50012;SDS011;35901;48.694;9.476;2023-08-31T03:50:22;6.10;;;5.50;;
50012;SDS011;35901;48.694;9.476;2023-08-31T03:52:49;14.13;;;6.03;;
50012;SDS011;35901;48.694;9.476;2023-08-31T03:55:15;5.97;;;5.40;;
50012;SDS011;35901;48.694;9.476;2023-08-31T03:57:41;6.40;;;5.80;;
50012;SDS011;35901;48.694;9.476;2023-08-31T04:00:13;6.70;;;6.00;;
50012;SDS011;35901;48.694;9.476;2023-08-31T04:02:41;6.20;;;5.57;;
50012;SDS011;35901;48.694;9.476;2023-08-31T04:05:08;6.70;;;6.10;;
50012;SDS011;35901;48.694;9.476;2023-08-31T04:07:34;6.37;;;5.87;;
50012;SDS011;35901;48.694;9.476;2023-08-31T04:10:00;6.10;;;5.60;;
50012;SDS011;35901;48.694;9.476;2023-08-31T04:12:27;6.33;;;5.73;;
50012;SDS011;35901;48.694;9.476;2023-08-31T04:14:54;6.40;;;5.80;;
50012;SDS011;35901;48.694;9.476;2023-08-31T04:17:20;6.40;;;5.80;;
50012;SDS011;35901;48.694;9.476;2023-08-31T04:19:46;6.20;;;5.67;;
50012;SDS011;35901;48.694;9.476;2023-08-31T04:22:11;6.43;;;5.83;;
50012;SDS011;35901;48.694;9.476;2023-08-31T04:24:37;5.97;;;5.47;;
50012;SDS011;35901;48.694;9.476;2023-08-31T04:27:03;6.73;;;6.13;;
50012;SDS011;35901;48.694;9.476;2023-08-31T04:29:29;6.47;;;5.87;;
50012;SDS011;35901;48.694;9.476;2023-08-31T04:31:54;6.07;;;5.47;;
50012;SDS011;35901;48.694;9.476;2023-08-31T04:34:20;7.03;;;5.20;;
50012;SDS011;35901;48.694;9.476;2023-08-31T04:36:46;6.30;;;5.77;;
50012;SDS011;35901;48.694;9.476;2023-08-31T04:39:12;7.33;;;6.17;;
50012;SDS011;35901;48.694;9.476;2023-08-31T04:41:37;6.43;;;5.60;;
50012;SDS011;35901;48.694;9.476;2023-08-31T04:44:03;6.83;;;5.83;;
50012;SDS011;35901;48.694;9.476;2023-08-31T04:46:29;6.30;;;5.70;;
50012;SDS011;35901;48.694;9.476;2023-08-31T04:48:54;6.17;;;5.67;;
50012;SDS011;35901;48.694;9.476;2023-08-31T04:51:27;5.80;;;5.10;;
50012;SDS011;35901;48.694;9.476;2023-08-31T04:54:06;7.27;;;6.13;;
50012;SDS011;35901;48.694;9.476;2023-08-31T04:56:32;6.70;;;6.10;;
50012;SDS011;35901;48.694;9.476;2023-08-31T04:58:58;6.60;;;6.00;;
50012;SDS011;35901;48.694;9.476;2023-08-31T05:01:24;6.03;;;5.53;;
50012;SDS011;35901;48.694;9.476;2023-08-31T05:03:50;6.10;;;5.07;;
50012;SDS011;35901;48.694;9.476;2023-08-31T05:06:17;5.77;;;5.17;;
50012;SDS011;35901;48.694;9.476;2023-08-31T05:08:43;5.30;;;4.90;;
50012;SDS011;35901;48.694;9.476;2023-08-31T05:11:08;5.57;;;5.07;;
50012;SDS011;35901;48.694;9.476;2023-08-31T05:13:35;5.97;;;5.47;;
50012;SDS011;35901;48.694;9.476;2023-08-31T05:16:00;5.87;;;5.37;;
50012;SDS011;35901;48.694;9.476;2023-08-31T05:18:27;6.00;;;5.40;;
50012;SDS011;35901;48.694;9.476;2023-08-31T05:20:53;6.53;;;5.77;;
50012;SDS011;35901;48.694;9.476;2023-08-31T05:23:19;5.60;;;5.10;;
50012;SDS011;35901;48.694;9.476;2023-08-31T05:25:45;5.37;;;4.90;;
50012;SDS011;35901;48.694;9.476;2023-08-31T05:28:11;5.80;;;5.30;;
50012;SDS011;35901;48.694;9.476;2023-08-31T05:30:45;5.80;;;5.30;;
50012;SDS011;35901;48.694;9.476;2023-08-31T05:33:18;5.70;;;5.10;;
50012;SDS011;35901;48.694;9.476;2023-08-31T05:35:45;5.57;;;5.07;;
50012;SDS011;35901;48.694;9.476;2023-08-31T05:38:11;5.63;;;5.10;;
50012;SDS011;35901;48.694;9.476;2023-08-31T05:40:37;6.30;;;5.47;;
50012;SDS011;35901;48.694;9.476;2023-08-31T05:43:03;5.93;;;5.40;;
50012;SDS011;35901;48.694;9.476;2023-08-31T05:45:35;5.50;;;4.90;;
50012;SDS011;35901;48.694;9.476;2023-08-31T05:48:00;5.77;;;5.27;;
50012;SDS011;35901;48.694;9.476;2023-08-31T05:50:27;5.73;;;5.23;;
50012;SDS011;35901;48.694;9.476;2023-08-31T05:52:53;6.07;;;5.57;;
50012;SDS011;35901;48.694;9.476;2023-08-31T05:55:19;5.70;;;5.20;;
50012;SDS011;35901;48.694;9.476;2023-08-31T05:57:45;5.90;;;5.30;;
50012;SDS011;35901;48.694;9.476;2023-08-31T06:00:11;5.17;;;4.77;;
50012;SDS011;35901;48.694;9.476;2023-08-31T06:02:40;5.30;;;4.90;;
50012;SDS011;35901;48.694;9.476;2023-08-31T06:05:07;4.87;;;4.47;;
50012;SDS011;35901;48.694;9.476;2023-08-31T06:07:33;5.13;;;4.63;;
50012;SDS011;35901;48.694;9.476;2023-08-31T06:09:58;5.10;;;4.60;;
50012;SDS011;35901;48.694;9.476;2023-08-31T06:12:24;5.43;;;4.93;;
50012;SDS011;35901;48.694;9.476;2023-08-31T06:14:49;4.60;;;4.30;;
50012;SDS011;35901;48.694;9.476;2023-08-31T06:17:15;5.00;;;4.50;;
50012;SDS011;35901;48.694;9.476;2023-08-31T06:19:41;5.90;;;4.77;;
50012;SDS011;35901;48.694;9.476;2023-08-31T06:22:07;5.70;;;5.10;;
50012;SDS011;35901;48.694;9.476;2023-08-31T06:24:33;7.83;;;5.00;;
50012;SDS011;35901;48.694;9.476;2023-08-31T06:27:00;5.73;;;4.50;;
50012;SDS011;35901;48.694;9.476;2023-08-31T06:29:26;5.23;;;4.43;;
50012;SDS011;35901;48.694;9.476;2023-08-31T06:31:51;5.67;;;4.50;;
50012;SDS011;35901;48.694;9.476;2023-08-31T06:34:17;5.60;;;4.50;;
50012;SDS011;35901;48.694;9.476;2023-08-31T06:36:43;4.70;;;4.30;;
50012;SDS011;35901;48.694;9.476;2023-08-31T06:39:08;4.80;;;4.27;;
50012;SDS011;35901;48.694;9.476;2023-08-31T06:41:34;4.50;;;4.10;;
50012;SDS011;35901;48.694;9.476;2023-08-31T06:44:01;4.77;;;4.30;;
50012;SDS011;35901;48.694;9.476;2023-08-31T06:46:30;4.70;;;4.03;;
50012;SDS011;35901;48.694;9.476;2023-08-31T06:49:02;4.30;;;4.00;;
50012;SDS011;35901;48.694;9.476;2023-08-31T06:51:33;7.13;;;4.00;;
50012;SDS011;35901;48.694;9.476;2023-08-31T06:54:00;4.00;;;3.60;;
50012;SDS011;35901;48.694;9.476;2023-08-31T06:56:34;5.17;;;3.17;;
50012;SDS011;35901;48.694;9.476;2023-08-31T06:59:00;4.47;;;3.20;;
50012;SDS011;35901;48.694;9.476;2023-08-31T07:01:26;5.03;;;3.53;;
50012;SDS011;35901;48.694;9.476;2023-08-31T07:03:55;4.03;;;2.87;;
50012;SDS011;35901;48.694;9.476;2023-08-31T07:06:21;3.10;;;2.67;;
50012;SDS011;35901;48.694;9.476;2023-08-31T07:08:47;3.10;;;2.60;;
50012;SDS011;35901;48.694;9.476;2023-08-31T07:11:13;2.93;;;2.50;;
50012;SDS011;35901;48.694;9.476;2023-08-31T07:13:40;2.83;;;2.60;;
50012;SDS011;35901;48.694;9.476;2023-08-31T07:16:06;4.90;;;3.13;;
50012;SDS011;35901;48.694;9.476;2023-08-31T07:18:31;3.67;;;2.90;;
50012;SDS011;35901;48.694;9.476;2023-08-31T07:20:57;2.53;;;2.33;;
50012;SDS011;35901;48.694;9.476;2023-08-31T07:23:23;4.63;;;2.83;;
50012;SDS011;35901;48.694;9.476;2023-08-31T07:25:49;2.70;;;2.50;;
50012;SDS011;35901;48.694;9.476;2023-08-31T07:28:14;3.00;;;2.60;;
50012;SDS011;35901;48.694;9.476;2023-08-31T07:30:40;3.63;;;2.60;;
50012;SDS011;35901;48.694;9.476;2023-08-31T07:33:06;3.27;;;2.50;;
50012;SDS011;35901;48.694;9.476;2023-08-31T07:35:32;2.60;;;2.40;;
50012;SDS011;35901;48.694;9.476;2023-08-31T07:37:57;3.30;;;2.50;;
50012;SDS011;35901;48.694;9.476;2023-08-31T07:40:23;3.43;;;2.60;;
50012;SDS011;35901;48.694;9.476;2023-08-31T07:42:50;3.13;;;2.47;;
50012;SDS011;35901;48.694;9.476;2023-08-31T07:45:16;2.93;;;2.57;;
50012;SDS011;35901;48.694;9.476;2023-08-31T07:47:42;3.13;;;2.33;;
50012;SDS011;35901;48.694;9.476;2023-08-31T07:50:08;2.63;;;2.30;;
50012;SDS011;35901;48.694;9.476;2023-08-31T07:52:35;2.80;;;2.50;;
50012;SDS011;35901;48.694;9.476;2023-08-31T07:55:02;4.07;;;2.77;;
50012;SDS011;35901;48.694;9.476;2023-08-31T07:57:28;3.80;;;2.30;;
50012;SDS011;35901;48.694;9.476;2023-08-31T07:59:54;3.13;;;2.37;;
50012;SDS011;35901;48.694;9.476;2023-08-31T08:02:20;2.70;;;2.50;;
50012;SDS011;35901;48.694;9.476;2023-08-31T08:04:46;4.27;;;2.30;;
50012;SDS011;35901;48.694;9.476;2023-08-31T08:07:12;2.47;;;2.27;;
50012;SDS011;35901;48.694;9.476;2023-08-31T08:09:37;3.60;;;2.30;;
50012;SDS011;35901;48.694;9.476;2023-08-31T08:12:03;4.10;;;2.50;;
50012;SDS011;35901;48.694;9.476;2023-08-31T08:14:29;2.73;;;1.80;;
50012;SDS011;35901;48.694;9.476;2023-08-31T08:16:54;2.97;;;2.10;;
50012;SDS011;35901;48.694;9.476;2023-08-31T08:19:23;2.60;;;2.07;;
50012;SDS011;35901;48.694;9.476;2023-08-31T08:21:50;2.43;;;2.10;;
50012;SDS011;35901;48.694;9.476;2023-08-31T08:24:16;3.17;;;2.00;;
50012;SDS011;35901;48.694;9.476;2023-08-31T08:26:41;2.63;;;1.97;;
50012;SDS011;35901;48.694;9.476;2023-08-31T08:29:07;3.03;;;2.10;;
50012;SDS011;35901;48.694;9.476;2023-08-31T08:31:33;3.87;;;2.37;;
50012;SDS011;35901;48.694;9.476;2023-08-31T08:33:58;2.73;;;2.00;;
50012;SDS011;35901;48.694;9.476;2023-08-31T08:36:25;2.80;;;1.93;;
50012;SDS011;35901;48.694;9.476;2023-08-31T08:38:51;4.03;;;2.00;;
50012;SDS011;35901;48.694;9.476;2023-08-31T08:41:17;2.93;;;2.23;;
50012;SDS011;35901;48.694;9.476;2023-08-31T08:43:49;2.97;;;2.00;;
50012;SDS011;35901;48.694;9.476;2023-08-31T08:46:16;2.13;;;1.90;;
50012;SDS011;35901;48.694;9.476;2023-08-31T08:48:42;3.17;;;2.10;;
50012;SDS011;35901;48.694;9.476;2023-08-31T08:51:09;2.20;;;1.80;;
50012;SDS011;35901;48.694;9.476;2023-08-31T08:53:36;3.00;;;2.30;;
50012;SDS011;35901;48.694;9.476;2023-08-31T08:56:04;2.90;;;1.97;;
50012;SDS011;35901;48.694;9.476;2023-08-31T08:58:29;2.73;;;2.00;;
50012;SDS011;35901;48.694;9.476;2023-08-31T09:00:55;2.90;;;2.60;;
50012;SDS011;35901;48.694;9.476;2023-08-31T09:03:22;3.27;;;2.20;;
50012;SDS011;35901;48.694;9.476;2023-08-31T09:05:49;2.67;;;2.00;;
50012;SDS011;35901;48.694;9.476;2023-08-31T09:08:16;3.07;;;2.00;;
50012;SDS011;35901;48.694;9.476;2023-08-31T09:10:42;3.43;;;2.13;;
50012;SDS011;35901;48.694;9.476;2023-08-31T09:13:12;4.40;;;2.10;;
50012;SDS011;35901;48.694;9.476;2023-08-31T09:15:45;4.13;;;2.10;;
50012;SDS011;35901;48.694;9.476;2023-08-31T09:18:26;2.10;;;1.80;;
50012;SDS011;35901;48.694;9.476;2023-08-31T09:20:53;3.17;;;1.90;;
50012;SDS011;35901;48.694;9.476;2023-08-31T09:23:21;4.23;;;2.10;;
50012;SDS011;35901;48.694;9.476;2023-08-31T09:25:48;2.87;;;1.83;;
50012;SDS011;35901;48.694;9.476;2023-08-31T09:28:15;2.80;;;2.03;;
50012;SDS011;35901;48.694;9.476;2023-08-31T09:30:44;3.27;;;2.00;;
50012;SDS011;35901;48.694;9.476;2023-08-31T09:33:16;4.37;;;2.17;;
50012;SDS011;35901;48.694;9.476;2023-08-31T09:35:47;2.93;;;2.23;;
50012;SDS011;35901;48.694;9.476;2023-08-31T09:38:22;2.43;;;2.13;;
50012;SDS011;35901;48.694;9.476;2023-08-31T09:40:47;3.27;;;2.13;;
50012;SDS011;35901;48.694;9.476;2023-08-31T09:43:22;3.03;;;2.23;;
50012;SDS011;35901;48.694;9.476;2023-08-31T09:45:49;4.07;;;2.60;;
50012;SDS011;35901;48.694;9.476;2023-08-31T09:48:16;2.03;;;1.93;;
50012;SDS011;35901;48.694;9.476;2023-08-31T09:50:45;4.70;;;2.03;;
50012;SDS011;35901;48.694;9.476;2023-08-31T09:53:13;3.93;;;2.00;;
50012;SDS011;35901;48.694;9.476;2023-08-31T09:55:41;3.03;;;1.90;;
50012;SDS011;35901;48.694;9.476;2023-08-31T09:58:08;2.20;;;2.00;;
50012;SDS011;35901;48.694;9.476;2023-08-31T10:00:35;2.53;;;1.50;;
50012;SDS011;35901;48.694;9.476;2023-08-31T10:03:03;3.13;;;2.20;;
50012;SDS011;35901;48.694;9.476;2023-08-31T10:05:30;2.47;;;2.10;;
50012;SDS011;35901;48.694;9.476;2023-08-31T10:07:57;2.47;;;2.10;;
50012;SDS011;35901;48.694;9.476;2023-08-31T10:10:23;2.20;;;2.00;;
50012;SDS011;35901;48.694;9.476;2023-08-31T10:12:49;3.80;;;2.40;;
50012;SDS011;35901;48.694;9.476;2023-08-31T10:15:17;3.33;;;2.30;;
50012;SDS011;35901;48.694;9.476;2023-08-31T10:17:44;3.13;;;2.20;;
50012;SDS011;35901;48.694;9.476;2023-08-31T10:20:19;3.00;;;2.10;;
50012;SDS011;35901;48.694;9.476;2023-08-31T10:22:45;2.70;;;2.03;;
50012;SDS011;35901;48.694;9.476;2023-08-31T10:25:11;3.00;;;2.20;;
50012;SDS011;35901;48.694;9.476;2023-08-31T10:27:43;3.17;;;2.13;;
50012;SDS011;35901;48.694;9.476;2023-08-31T10:30:23;3.13;;;2.00;;
50012;SDS011;35901;48.694;9.476;2023-08-31T10:38:24;3.90;;;2.30;;
50012;SDS011;35901;48.694;9.476;2023-08-31T10:46:28;4.13;;;2.30;;
50012;SDS011;35901;48.694;9.476;2023-08-31T10:48:56;2.77;;;1.97;;
50012;SDS011;35901;48.694;9.476;2023-08-31T10:51:23;3.37;;;2.27;;
50012;SDS011;35901;48.694;9.476;2023-08-31T10:54:13;2.30;;;2.00;;
50012;SDS011;35901;48.694;9.476;2023-08-31T11:00:06;4.33;;;2.13;;
50012;SDS011;35901;48.694;9.476;2023-08-31T11:02:29;3.50;;;2.00;;
50012;SDS011;35901;48.694;9.476;2023-08-31T11:05:11;2.37;;;1.93;;
50012;SDS011;35901;48.694;9.476;2023-08-31T11:07:41;3.30;;;2.03;;
50012;SDS011;35901;48.694;9.476;2023-08-31T11:12:39;3.00;;;2.07;;
50012;SDS011;35901;48.694;9.476;2023-08-31T11:15:06;4.90;;;2.30;;
50012;SDS011;35901;48.694;9.476;2023-08-31T11:17:32;4.17;;;2.17;;
50012;SDS011;35901;48.694;9.476;2023-08-31T11:19:58;3.93;;;2.40;;
50012;SDS011;35901;48.694;9.476;2023-08-31T11:22:25;3.97;;;2.13;;
50012;SDS011;35901;48.694;9.476;2023-08-31T11:24:51;3.97;;;2.63;;
50012;SDS011;35901;48.694;9.476;2023-08-31T11:27:20;3.27;;;2.40;;
50012;SDS011;35901;48.694;9.476;2023-08-31T11:29:46;4.53;;;2.23;;
50012;SDS011;35901;48.694;9.476;2023-08-31T11:32:12;4.13;;;2.10;;
50012;SDS011;35901;48.694;9.476;2023-08-31T11:34:41;4.03;;;2.17;;
50012;SDS011;35901;48.694;9.476;2023-08-31T11:37:09;3.20;;;2.03;;
50012;SDS011;35901;48.694;9.476;2023-08-31T11:39:36;3.37;;;2.10;;
50012;SDS011;35901;48.694;9.476;2023-08-31T11:42:03;3.30;;;2.10;;
50012;SDS011;35901;48.694;9.476;2023-08-31T11:44:29;3.00;;;2.13;;
50012;SDS011;35901;48.694;9.476;2023-08-31T11:46:55;3.17;;;2.30;;
50012;SDS011;35901;48.694;9.476;2023-08-31T11:49:21;3.90;;;2.30;;
50012;SDS011;35901;48.694;9.476;2023-08-31T11:51:47;3.90;;;2.43;;
50012;SDS011;35901;48.694;9.476;2023-08-31T11:54:17;2.47;;;1.83;;
50012;SDS011;35901;48.694;9.476;2023-08-31T11:56:46;3.53;;;2.33;;
50012;SDS011;35901;48.694;9.476;2023-08-31T11:59:16;3.43;;;2.20;;
50012;SDS011;35901;48.694;9.476;2023-08-31T12:01:43;5.17;;;2.40;;
50012;SDS011;35901;48.694;9.476;2023-08-31T12:04:14;4.60;;;2.40;;
50012;SDS011;35901;48.694;9.476;2023-08-31T12:06:41;3.47;;;2.50;;
50012;SDS011;35901;48.694;9.476;2023-08-31T12:09:10;3.77;;;2.30;;
50012;SDS011;35901;48.694;9.476;2023-08-31T12:11:36;2.93;;;2.20;;
50012;SDS011;35901;48.694;9.476;2023-08-31T12:14:03;2.80;;;2.30;;
50012;SDS011;35901;48.694;9.476;2023-08-31T12:16:35;3.47;;;2.40;;
50012;SDS011;35901;48.694;9.476;2023-08-31T12:19:04;3.63;;;2.10;;
50012;SDS011;35901;48.694;9.476;2023-08-31T12:21:31;3.10;;;2.03;;
50012;SDS011;35901;48.694;9.476;2023-08-31T12:23:58;2.93;;;1.90;;
50012;SDS011;35901;48.694;9.476;2023-08-31T12:26:24;3.57;;;2.10;;
50012;SDS011;35901;48.694;9.476;2023-08-31T12:28:50;3.73;;;2.30;;
50012;SDS011;35901;48.694;9.476;2023-08-31T12:31:16;2.43;;;2.00;;
50012;SDS011;35901;48.694;9.476;2023-08-31T12:33:42;2.93;;;2.10;;
50012;SDS011;35901;48.694;9.476;2023-08-31T12:36:08;3.43;;;2.10;;
50012;SDS011;35901;48.694;9.476;2023-08-31T12:38:34;2.90;;;1.97;;
50012;SDS011;35901;48.694;9.476;2023-08-31T12:41:00;2.90;;;2.30;;
50012;SDS011;35901;48.694;9.476;2023-08-31T12:43:27;3.20;;;2.23;;
50012;SDS011;35901;48.694;9.476;2023-08-31T12:45:54;2.90;;;2.30;;
50012;SDS011;35901;48.694;9.476;2023-08-31T12:48:21;3.77;;;2.40;;
50012;SDS011;35901;48.694;9.476;2023-08-31T12:50:46;2.77;;;2.03;;
50012;SDS011;35901;48.694;9.476;2023-08-31T12:53:13;3.87;;;2.20;;
50012;SDS011;35901;48.694;9.476;2023-08-31T12:55:42;2.90;;;2.20;;
50012;SDS011;35901;48.694;9.476;2023-08-31T12:58:07;3.63;;;2.13;;
50012;SDS011;35901;48.694;9.476;2023-08-31T13:00:33;3.57;;;2.27;;
50012;SDS011;35901;48.694;9.476;2023-08-31T13:02:59;3.30;;;2.53;;
50012;SDS011;35901;48.694;9.476;2023-08-31T13:05:26;2.60;;;2.10;;
50012;SDS011;35901;48.694;9.476;2023-08-31T13:07:54;3.43;;;2.20;;
50012;SDS011;35901;48.694;9.476;2023-08-31T13:10:20;4.47;;;2.20;;
50012;SDS011;35901;48.694;9.476;2023-08-31T13:12:45;3.80;;;2.00;;
50012;SDS011;35901;48.694;9.476;2023-08-31T13:15:11;3.33;;;2.10;;
50012;SDS011;35901;48.694;9.476;2023-08-31T13:17:38;5.00;;;2.37;;
50012;SDS011;35901;48.694;9.476;2023-08-31T13:20:05;3.60;;;2.07;;
50012;SDS011;35901;48.694;9.476;2023-08-31T13:22:31;3.93;;;2.00;;
50012;SDS011;35901;48.694;9.476;2023-08-31T13:24:57;4.10;;;2.00;;
50012;SDS011;35901;48.694;9.476;2023-08-31T13:27:22;2.90;;;1.90;;
50012;SDS011;35901;48.694;9.476;2023-08-31T13:29:48;3.00;;;2.00;;
50012;SDS011;35901;48.694;9.476;2023-08-31T13:32:14;3.23;;;2.03;;
50012;SDS011;35901;48.694;9.476;2023-08-31T13:34:39;3.33;;;1.80;;
50012;SDS011;35901;48.694;9.476;2023-08-31T13:37:05;2.83;;;2.10;;
50012;SDS011;35901;48.694;9.476;2023-08-31T13:39:33;3.70;;;2.40;;
50012;SDS011;35901;48.694;9.476;2023-08-31T13:42:00;3.60;;;2.10;;
50012;SDS011;35901;48.694;9.476;2023-08-31T13:44:28;5.03;;;2.50;;
50012;SDS011;35901;48.694;9.476;2023-08-31T13:46:55;5.17;;;2.30;;
50012;SDS011;35901;48.694;9.476;2023-08-31T13:49:21;2.83;;;2.10;;
50012;SDS011;35901;48.694;9.476;2023-08-31T13:51:46;3.43;;;2.00;;
50012;SDS011;35901;48.694;9.476;2023-08-31T13:54:12;4.07;;;2.13;;
50012;SDS011;35901;48.694;9.476;2023-08-31T13:56:38;4.23;;;2.37;;
50012;SDS011;35901;48.694;9.476;2023-08-31T13:59:03;3.73;;;2.30;;
50012;SDS011;35901;48.694;9.476;2023-08-31T14:01:29;3.47;;;2.00;;
50012;SDS011;35901;48.694;9.476;2023-08-31T14:03:55;3.60;;;2.23;;
50012;SDS011;35901;48.694;9.476;2023-08-31T14:06:21;7.30;;;6.53;;
50012;SDS011;35901;48.694;9.476;2023-08-31T14:08:46;5.57;;;3.70;;
50012;SDS011;35901;48.694;9.476;2023-08-31T14:11:13;4.57;;;2.50;;
50012;SDS011;35901;48.694;9.476;2023-08-31T14:13:39;3.33;;;2.30;;
50012;SDS011;35901;48.694;9.476;2023-08-31T14:16:06;2.80;;;2.20;;
50012;SDS011;35901;48.694;9.476;2023-08-31T14:18:32;2.53;;;2.30;;
50012;SDS011;35901;48.694;9.476;2023-08-31T14:20:58;2.50;;;2.00;;
50012;SDS011;35901;48.694;9.476;2023-08-31T14:23:25;3.70;;;2.10;;
50012;SDS011;35901;48.694;9.476;2023-08-31T14:25:50;3.40;;;2.00;;
50012;SDS011;35901;48.694;9.476;2023-08-31T14:28:16;2.77;;;2.00;;
50012;SDS011;35901;48.694;9.476;2023-08-31T14:30:42;3.17;;;2.40;;
50012;SDS011;35901;48.694;9.476;2023-08-31T14:33:07;3.03;;;2.23;;
50012;SDS011;35901;48.694;9.476;2023-08-31T14:35:37;3.60;;;2.20;;
50012;SDS011;35901;48.694;9.476;2023-08-31T14:38:04;3.30;;;2.10;;
50012;SDS011;35901;48.694;9.476;2023-08-31T14:40:30;3.60;;;2.20;;
50012;SDS011;35901;48.694;9.476;2023-08-31T14:42:56;3.27;;;2.40;;
50012;SDS011;35901;48.694;9.476;2023-08-31T14:45:21;5.20;;;2.40;;
50012;SDS011;35901;48.694;9.476;2023-08-31T14:47:47;3.17;;;2.10;;
50012;SDS011;35901;48.694;9.476;2023-08-31T14:50:12;2.87;;;2.00;;
50012;SDS011;35901;48.694;9.476;2023-08-31T14:52:38;2.17;;;1.93;;
50012;SDS011;35901;48.694;9.476;2023-08-31T14:55:04;2.87;;;2.17;;
50012;SDS011;35901;48.694;9.476;2023-08-31T14:57:30;2.27;;;2.03;;
50012;SDS011;35901;48.694;9.476;2023-08-31T14:59:56;2.70;;;2.23;;
50012;SDS011;35901;48.694;9.476;2023-08-31T15:02:23;3.30;;;2.00;;
50012;SDS011;35901;48.694;9.476;2023-08-31T15:04:49;2.27;;;2.00;;
50012;SDS011;35901;48.694;9.476;2023-08-31T15:07:16;2.13;;;2.00;;
50012;SDS011;35901;48.694;9.476;2023-08-31T15:09:42;2.47;;;2.00;;
50012;SDS011;35901;48.694;9.476;2023-08-31T15:12:08;3.83;;;2.20;;